sensor_id;sensor_type;location;lat;lon;timestamp;P1;durP1;ratioP1;P2;durP2;ratioP2
23680;SDS011;62915;50.832;4.462;2023-02-16T00:01:43;63.05;;;36.38;;
23680;SDS011;62915;50.832;4.462;2023-02-16T00:06:54;58.67;;;34.72;;
23680;SDS011;62915;50.832;4.462;2023-02-16T00:09:21;57.75;;;36.15;;
23680;SDS011;62915;50.832;4.462;2023-02-16T00:11:47;59.20;;;35.13;;
23680;SDS011;62915;50.832;4.462;2023-02-16T00:14:36;59.67;;;35.35;;
23680;SDS011;62915;50.832;4.462;2023-02-16T00:17:04;61.75;;;38.75;;
23680;SDS011;62915;50.832;4.462;2023-02-16T00:19:34;59.67;;;37.33;;
23680;SDS011;62915;50.832;4.462;2023-02-16T00:22:00;61.10;;;36.30;;
23680;SDS011;62915;50.832;4.462;2023-02-16T00:24:27;57.63;;;34.30;;
23680;SDS011;62915;50.832;4.462;2023-02-16T00:26:54;64.53;;;38.05;;
23680;SDS011;62915;50.832;4.462;2023-02-16T00:31:56;62.38;;;37.53;;
23680;SDS011;62915;50.832;4.462;2023-02-16T00:34:37;61.17;;;37.00;;
23680;SDS011;62915;50.832;4.462;2023-02-16T00:37:09;61.72;;;37.88;;
23680;SDS011;62915;50.832;4.462;2023-02-16T00:39:37;62.83;;;37.60;;
23680;SDS011;62915;50.832;4.462;2023-02-16T00:42:04;59.35;;;35.10;;
23680;SDS011;62915;50.832;4.462;2023-02-16T00:44:43;64.60;;;37.53;;
23680;SDS011;62915;50.832;4.462;2023-02-16T00:49:46;66.97;;;38.50;;
23680;SDS011;62915;50.832;4.462;2023-02-16T00:52:33;59.92;;;37.88;;
23680;SDS011;62915;50.832;4.462;2023-02-16T00:55:11;55.20;;;36.00;;
23680;SDS011;62915;50.832;4.462;2023-02-16T00:58:22;61.45;;;36.90;;
23680;SDS011;62915;50.832;4.462;2023-02-16T01:00:46;61.15;;;38.25;;
23680;SDS011;62915;50.832;4.462;2023-02-16T01:03:20;63.60;;;37.20;;
23680;SDS011;62915;50.832;4.462;2023-02-16T01:05:48;64.75;;;38.28;;
23680;SDS011;62915;50.832;4.462;2023-02-16T01:08:34;65.93;;;37.45;;
23680;SDS011;62915;50.832;4.462;2023-02-16T01:11:18;65.85;;;39.50;;
23680;SDS011;62915;50.832;4.462;2023-02-16T01:13:45;67.40;;;38.30;;
23680;SDS011;62915;50.832;4.462;2023-02-16T01:16:17;62.30;;;38.10;;
23680;SDS011;62915;50.832;4.462;2023-02-16T01:19:04;66.70;;;38.42;;
23680;SDS011;62915;50.832;4.462;2023-02-16T01:21:29;62.60;;;39.03;;
23680;SDS011;62915;50.832;4.462;2023-02-16T01:23:55;60.80;;;36.75;;
23680;SDS011;62915;50.832;4.462;2023-02-16T01:26:21;59.25;;;37.90;;
23680;SDS011;62915;50.832;4.462;2023-02-16T01:28:48;62.80;;;36.05;;
23680;SDS011;62915;50.832;4.462;2023-02-16T01:31:14;61.95;;;36.65;;
23680;SDS011;62915;50.832;4.462;2023-02-16T01:33:41;60.67;;;36.13;;
23680;SDS011;62915;50.832;4.462;2023-02-16T01:36:19;56.28;;;35.42;;
23680;SDS011;62915;50.832;4.462;2023-02-16T01:38:48;63.42;;;36.97;;
23680;SDS011;62915;50.832;4.462;2023-02-16T01:46:50;58.05;;;35.20;;
23680;SDS011;62915;50.832;4.462;2023-02-16T01:49:23;59.00;;;35.33;;
23680;SDS011;62915;50.832;4.462;2023-02-16T01:51:51;56.63;;;35.45;;
23680;SDS011;62915;50.832;4.462;2023-02-16T02:04:52;57.15;;;34.28;;
23680;SDS011;62915;50.832;4.462;2023-02-16T02:15:33;52.42;;;34.75;;
23680;SDS011;62915;50.832;4.462;2023-02-16T02:17:59;51.17;;;33.22;;
23680;SDS011;62915;50.832;4.462;2023-02-16T02:23:17;57.33;;;35.03;;
23680;SDS011;62915;50.832;4.462;2023-02-16T02:36:36;52.08;;;32.40;;
23680;SDS011;62915;50.832;4.462;2023-02-16T02:41:42;51.00;;;31.75;;
23680;SDS011;62915;50.832;4.462;2023-02-16T02:44:33;51.95;;;32.72;;
23680;SDS011;62915;50.832;4.462;2023-02-16T02:47:13;52.75;;;33.22;;
23680;SDS011;62915;50.832;4.462;2023-02-16T02:49:39;49.63;;;30.88;;
23680;SDS011;62915;50.832;4.462;2023-02-16T02:52:06;55.78;;;32.75;;
23680;SDS011;62915;50.832;4.462;2023-02-16T02:54:33;51.53;;;32.13;;
23680;SDS011;62915;50.832;4.462;2023-02-16T02:57:23;48.50;;;30.38;;
23680;SDS011;62915;50.832;4.462;2023-02-16T03:00:20;51.05;;;32.28;;
23680;SDS011;62915;50.832;4.462;2023-02-16T03:05:58;50.10;;;31.98;;
23680;SDS011;62915;50.832;4.462;2023-02-16T03:08:32;46.85;;;30.23;;
23680;SDS011;62915;50.832;4.462;2023-02-16T03:11:21;51.20;;;32.35;;
23680;SDS011;62915;50.832;4.462;2023-02-16T03:14:08;52.38;;;30.92;;
23680;SDS011;62915;50.832;4.462;2023-02-16T03:16:39;46.88;;;30.88;;
23680;SDS011;62915;50.832;4.462;2023-02-16T03:19:09;48.92;;;31.38;;
23680;SDS011;62915;50.832;4.462;2023-02-16T03:21:56;51.92;;;31.60;;
23680;SDS011;62915;50.832;4.462;2023-02-16T03:24:40;51.08;;;32.92;;
23680;SDS011;62915;50.832;4.462;2023-02-16T03:27:26;53.67;;;33.45;;
23680;SDS011;62915;50.832;4.462;2023-02-16T03:30:14;47.22;;;31.55;;
23680;SDS011;62915;50.832;4.462;2023-02-16T03:32:42;48.05;;;30.77;;
23680;SDS011;62915;50.832;4.462;2023-02-16T03:35:09;50.10;;;31.80;;
23680;SDS011;62915;50.832;4.462;2023-02-16T03:37:37;52.97;;;32.05;;
23680;SDS011;62915;50.832;4.462;2023-02-16T03:40:07;51.10;;;32.03;;
23680;SDS011;62915;50.832;4.462;2023-02-16T03:43:04;49.10;;;32.88;;
23680;SDS011;62915;50.832;4.462;2023-02-16T03:45:32;47.80;;;31.13;;
23680;SDS011;62915;50.832;4.462;2023-02-16T03:48:01;48.42;;;31.75;;
23680;SDS011;62915;50.832;4.462;2023-02-16T03:50:28;51.53;;;31.77;;
23680;SDS011;62915;50.832;4.462;2023-02-16T03:52:54;53.55;;;32.85;;
23680;SDS011;62915;50.832;4.462;2023-02-16T03:55:42;51.60;;;32.58;;
23680;SDS011;62915;50.832;4.462;2023-02-16T03:58:11;49.22;;;30.05;;
23680;SDS011;62915;50.832;4.462;2023-02-16T04:00:39;49.75;;;31.05;;
23680;SDS011;62915;50.832;4.462;2023-02-16T04:03:05;44.60;;;30.50;;
23680;SDS011;62915;50.832;4.462;2023-02-16T04:05:32;46.30;;;30.60;;
23680;SDS011;62915;50.832;4.462;2023-02-16T04:07:58;47.92;;;31.13;;
23680;SDS011;62915;50.832;4.462;2023-02-16T04:10:24;42.60;;;29.20;;
23680;SDS011;62915;50.832;4.462;2023-02-16T04:12:50;48.80;;;30.90;;
23680;SDS011;62915;50.832;4.462;2023-02-16T04:15:19;50.65;;;31.02;;
23680;SDS011;62915;50.832;4.462;2023-02-16T04:17:47;49.25;;;31.05;;
23680;SDS011;62915;50.832;4.462;2023-02-16T04:20:14;51.03;;;32.45;;
23680;SDS011;62915;50.832;4.462;2023-02-16T04:22:42;47.20;;;30.98;;
23680;SDS011;62915;50.832;4.462;2023-02-16T04:25:08;47.88;;;32.10;;
23680;SDS011;62915;50.832;4.462;2023-02-16T04:27:35;50.92;;;31.35;;
23680;SDS011;62915;50.832;4.462;2023-02-16T04:30:02;46.53;;;31.25;;
23680;SDS011;62915;50.832;4.462;2023-02-16T04:32:29;47.25;;;30.45;;
23680;SDS011;62915;50.832;4.462;2023-02-16T04:34:55;50.15;;;31.13;;
23680;SDS011;62915;50.832;4.462;2023-02-16T04:37:20;46.50;;;30.25;;
23680;SDS011;62915;50.832;4.462;2023-02-16T04:39:46;49.88;;;30.40;;
23680;SDS011;62915;50.832;4.462;2023-02-16T04:42:12;49.28;;;30.17;;
23680;SDS011;62915;50.832;4.462;2023-02-16T04:44:38;49.58;;;31.50;;
23680;SDS011;62915;50.832;4.462;2023-02-16T04:47:03;51.10;;;31.83;;
23680;SDS011;62915;50.832;4.462;2023-02-16T04:49:29;50.63;;;31.30;;
23680;SDS011;62915;50.832;4.462;2023-02-16T04:51:55;45.08;;;30.85;;
23680;SDS011;62915;50.832;4.462;2023-02-16T04:54:21;50.05;;;31.52;;
23680;SDS011;62915;50.832;4.462;2023-02-16T04:56:47;46.35;;;31.30;;
23680;SDS011;62915;50.832;4.462;2023-02-16T04:59:13;45.38;;;29.25;;
23680;SDS011;62915;50.832;4.462;2023-02-16T05:01:40;47.13;;;29.02;;
23680;SDS011;62915;50.832;4.462;2023-02-16T05:04:06;48.15;;;29.45;;
23680;SDS011;62915;50.832;4.462;2023-02-16T05:06:33;45.45;;;30.15;;
23680;SDS011;62915;50.832;4.462;2023-02-16T05:09:00;46.97;;;31.15;;
23680;SDS011;62915;50.832;4.462;2023-02-16T05:11:25;47.80;;;31.08;;
23680;SDS011;62915;50.832;4.462;2023-02-16T05:14:29;48.10;;;31.02;;
23680;SDS011;62915;50.832;4.462;2023-02-16T05:19:43;46.95;;;30.45;;
23680;SDS011;62915;50.832;4.462;2023-02-16T05:22:10;49.80;;;30.90;;
23680;SDS011;62915;50.832;4.462;2023-02-16T05:24:37;50.88;;;30.77;;
23680;SDS011;62915;50.832;4.462;2023-02-16T05:27:04;47.38;;;30.77;;
23680;SDS011;62915;50.832;4.462;2023-02-16T05:29:31;46.92;;;29.60;;
23680;SDS011;62915;50.832;4.462;2023-02-16T05:31:57;49.25;;;30.17;;
23680;SDS011;62915;50.832;4.462;2023-02-16T05:34:23;46.35;;;30.63;;
23680;SDS011;62915;50.832;4.462;2023-02-16T05:36:49;46.20;;;30.10;;
23680;SDS011;62915;50.832;4.462;2023-02-16T05:39:15;40.95;;;29.10;;
23680;SDS011;62915;50.832;4.462;2023-02-16T05:41:41;45.40;;;30.00;;
23680;SDS011;62915;50.832;4.462;2023-02-16T05:44:07;44.75;;;30.25;;
23680;SDS011;62915;50.832;4.462;2023-02-16T05:46:34;43.00;;;29.00;;
23680;SDS011;62915;50.832;4.462;2023-02-16T05:49:02;42.45;;;27.98;;
23680;SDS011;62915;50.832;4.462;2023-02-16T05:51:29;46.00;;;30.38;;
23680;SDS011;62915;50.832;4.462;2023-02-16T05:53:55;43.53;;;28.73;;
23680;SDS011;62915;50.832;4.462;2023-02-16T05:56:21;45.97;;;30.33;;
23680;SDS011;62915;50.832;4.462;2023-02-16T05:58:47;44.50;;;29.70;;
23680;SDS011;62915;50.832;4.462;2023-02-16T06:01:14;46.55;;;28.73;;
23680;SDS011;62915;50.832;4.462;2023-02-16T06:03:40;44.63;;;28.77;;
23680;SDS011;62915;50.832;4.462;2023-02-16T06:06:06;45.58;;;29.85;;
23680;SDS011;62915;50.832;4.462;2023-02-16T06:08:33;41.85;;;28.70;;
23680;SDS011;62915;50.832;4.462;2023-02-16T06:10:58;45.90;;;29.75;;
23680;SDS011;62915;50.832;4.462;2023-02-16T06:13:25;42.13;;;28.90;;
23680;SDS011;62915;50.832;4.462;2023-02-16T06:15:55;47.63;;;28.98;;
23680;SDS011;62915;50.832;4.462;2023-02-16T06:18:22;42.90;;;29.55;;
23680;SDS011;62915;50.832;4.462;2023-02-16T06:20:48;49.15;;;29.85;;
23680;SDS011;62915;50.832;4.462;2023-02-16T06:23:14;45.22;;;29.83;;
23680;SDS011;62915;50.832;4.462;2023-02-16T06:25:41;44.50;;;30.00;;
23680;SDS011;62915;50.832;4.462;2023-02-16T06:28:08;43.60;;;28.88;;
23680;SDS011;62915;50.832;4.462;2023-02-16T06:30:34;44.60;;;28.70;;
23680;SDS011;62915;50.832;4.462;2023-02-16T06:33:00;42.38;;;29.05;;
23680;SDS011;62915;50.832;4.462;2023-02-16T06:35:26;43.47;;;29.23;;
23680;SDS011;62915;50.832;4.462;2023-02-16T06:37:52;51.40;;;29.65;;
23680;SDS011;62915;50.832;4.462;2023-02-16T06:40:18;45.60;;;30.48;;
23680;SDS011;62915;50.832;4.462;2023-02-16T06:42:44;44.33;;;29.27;;
23680;SDS011;62915;50.832;4.462;2023-02-16T06:45:10;45.25;;;30.00;;
23680;SDS011;62915;50.832;4.462;2023-02-16T06:47:36;46.17;;;30.10;;
23680;SDS011;62915;50.832;4.462;2023-02-16T06:50:03;46.40;;;29.75;;
23680;SDS011;62915;50.832;4.462;2023-02-16T06:52:31;46.53;;;27.58;;
23680;SDS011;62915;50.832;4.462;2023-02-16T06:54:57;44.40;;;29.02;;
23680;SDS011;62915;50.832;4.462;2023-02-16T06:57:22;42.95;;;29.15;;
23680;SDS011;62915;50.832;4.462;2023-02-16T06:59:48;46.28;;;28.95;;
23680;SDS011;62915;50.832;4.462;2023-02-16T07:02:14;38.20;;;27.05;;
23680;SDS011;62915;50.832;4.462;2023-02-16T07:04:39;40.95;;;28.13;;
23680;SDS011;62915;50.832;4.462;2023-02-16T07:07:05;45.22;;;29.25;;
23680;SDS011;62915;50.832;4.462;2023-02-16T07:09:31;44.70;;;29.73;;
23680;SDS011;62915;50.832;4.462;2023-02-16T07:11:56;43.83;;;27.88;;
23680;SDS011;62915;50.832;4.462;2023-02-16T07:14:22;45.08;;;28.38;;
23680;SDS011;62915;50.832;4.462;2023-02-16T07:16:48;46.78;;;29.85;;
23680;SDS011;62915;50.832;4.462;2023-02-16T07:19:14;43.08;;;28.52;;
23680;SDS011;62915;50.832;4.462;2023-02-16T07:21:40;48.42;;;29.35;;
23680;SDS011;62915;50.832;4.462;2023-02-16T07:24:07;46.85;;;29.48;;
23680;SDS011;62915;50.832;4.462;2023-02-16T07:26:33;42.45;;;29.20;;
23680;SDS011;62915;50.832;4.462;2023-02-16T07:28:59;45.42;;;28.75;;
23680;SDS011;62915;50.832;4.462;2023-02-16T07:31:24;41.63;;;28.15;;
23680;SDS011;62915;50.832;4.462;2023-02-16T07:33:50;41.30;;;27.80;;
23680;SDS011;62915;50.832;4.462;2023-02-16T07:36:16;92.65;;;49.83;;
23680;SDS011;62915;50.832;4.462;2023-02-16T07:38:42;47.88;;;29.90;;
23680;SDS011;62915;50.832;4.462;2023-02-16T07:41:08;46.55;;;29.02;;
23680;SDS011;62915;50.832;4.462;2023-02-16T07:43:35;39.95;;;27.08;;
23680;SDS011;62915;50.832;4.462;2023-02-16T07:46:01;44.83;;;28.88;;
23680;SDS011;62915;50.832;4.462;2023-02-16T07:48:27;46.42;;;28.55;;
23680;SDS011;62915;50.832;4.462;2023-02-16T07:50:52;46.10;;;27.85;;
23680;SDS011;62915;50.832;4.462;2023-02-16T07:53:18;41.85;;;28.25;;
23680;SDS011;62915;50.832;4.462;2023-02-16T07:55:44;43.63;;;29.70;;
23680;SDS011;62915;50.832;4.462;2023-02-16T07:58:11;45.40;;;28.73;;
23680;SDS011;62915;50.832;4.462;2023-02-16T08:00:51;50.63;;;30.35;;
23680;SDS011;62915;50.832;4.462;2023-02-16T08:03:21;43.65;;;28.92;;
23680;SDS011;62915;50.832;4.462;2023-02-16T08:05:47;45.63;;;29.92;;
23680;SDS011;62915;50.832;4.462;2023-02-16T08:08:13;44.90;;;28.17;;
23680;SDS011;62915;50.832;4.462;2023-02-16T08:10:38;46.00;;;30.77;;
23680;SDS011;62915;50.832;4.462;2023-02-16T08:13:04;49.17;;;29.73;;
23680;SDS011;62915;50.832;4.462;2023-02-16T08:15:30;43.67;;;29.65;;
23680;SDS011;62915;50.832;4.462;2023-02-16T08:17:55;44.55;;;28.10;;
23680;SDS011;62915;50.832;4.462;2023-02-16T08:20:21;43.30;;;27.17;;
23680;SDS011;62915;50.832;4.462;2023-02-16T08:22:47;44.33;;;29.05;;
23680;SDS011;62915;50.832;4.462;2023-02-16T08:25:13;43.10;;;28.98;;
23680;SDS011;62915;50.832;4.462;2023-02-16T08:27:40;46.92;;;29.23;;
23680;SDS011;62915;50.832;4.462;2023-02-16T08:30:06;47.40;;;28.77;;
23680;SDS011;62915;50.832;4.462;2023-02-16T08:32:36;46.67;;;28.73;;
23680;SDS011;62915;50.832;4.462;2023-02-16T08:35:06;42.20;;;29.15;;
23680;SDS011;62915;50.832;4.462;2023-02-16T08:37:32;48.08;;;28.73;;
23680;SDS011;62915;50.832;4.462;2023-02-16T08:39:58;47.00;;;29.95;;
23680;SDS011;62915;50.832;4.462;2023-02-16T08:42:25;46.42;;;29.98;;
23680;SDS011;62915;50.832;4.462;2023-02-16T08:44:51;47.67;;;29.92;;
23680;SDS011;62915;50.832;4.462;2023-02-16T08:47:17;50.20;;;30.00;;
23680;SDS011;62915;50.832;4.462;2023-02-16T08:49:44;46.50;;;30.90;;
23680;SDS011;62915;50.832;4.462;2023-02-16T08:52:10;58.28;;;31.48;;
23680;SDS011;62915;50.832;4.462;2023-02-16T08:54:36;49.28;;;31.35;;
23680;SDS011;62915;50.832;4.462;2023-02-16T08:57:04;46.88;;;30.30;;
23680;SDS011;62915;50.832;4.462;2023-02-16T08:59:30;44.55;;;29.60;;
23680;SDS011;62915;50.832;4.462;2023-02-16T09:01:57;46.25;;;28.50;;
23680;SDS011;62915;50.832;4.462;2023-02-16T09:04:23;43.72;;;29.10;;
23680;SDS011;62915;50.832;4.462;2023-02-16T09:06:49;45.22;;;29.17;;
23680;SDS011;62915;50.832;4.462;2023-02-16T09:09:16;50.35;;;32.22;;
23680;SDS011;62915;50.832;4.462;2023-02-16T09:11:43;49.30;;;29.63;;
23680;SDS011;62915;50.832;4.462;2023-02-16T09:14:10;47.75;;;31.33;;
23680;SDS011;62915;50.832;4.462;2023-02-16T09:16:36;57.55;;;31.77;;
23680;SDS011;62915;50.832;4.462;2023-02-16T09:19:07;54.65;;;32.55;;
23680;SDS011;62915;50.832;4.462;2023-02-16T09:21:33;50.95;;;32.92;;
23680;SDS011;62915;50.832;4.462;2023-02-16T09:24:00;53.55;;;32.17;;
23680;SDS011;62915;50.832;4.462;2023-02-16T09:26:29;49.38;;;31.58;;
23680;SDS011;62915;50.832;4.462;2023-02-16T09:28:57;54.17;;;33.60;;
23680;SDS011;62915;50.832;4.462;2023-02-16T09:31:24;51.70;;;33.38;;
23680;SDS011;62915;50.832;4.462;2023-02-16T09:34:16;51.85;;;33.47;;
23680;SDS011;62915;50.832;4.462;2023-02-16T09:36:42;52.50;;;33.22;;
23680;SDS011;62915;50.832;4.462;2023-02-16T09:39:08;56.10;;;34.60;;
23680;SDS011;62915;50.832;4.462;2023-02-16T09:44:29;69.25;;;41.47;;
23680;SDS011;62915;50.832;4.462;2023-02-16T09:47:11;52.60;;;33.13;;
23680;SDS011;62915;50.832;4.462;2023-02-16T09:49:53;56.47;;;31.67;;
23680;SDS011;62915;50.832;4.462;2023-02-16T09:52:25;50.78;;;33.38;;
23680;SDS011;62915;50.832;4.462;2023-02-16T09:55:51;50.88;;;32.33;;
23680;SDS011;62915;50.832;4.462;2023-02-16T10:03:59;57.13;;;34.20;;
23680;SDS011;62915;50.832;4.462;2023-02-16T10:09:51;47.35;;;32.58;;
23680;SDS011;62915;50.832;4.462;2023-02-16T10:12:20;53.85;;;32.67;;
23680;SDS011;62915;50.832;4.462;2023-02-16T10:14:59;48.20;;;32.13;;
23680;SDS011;62915;50.832;4.462;2023-02-16T10:20:11;49.42;;;32.30;;
23680;SDS011;62915;50.832;4.462;2023-02-16T10:22:59;51.75;;;32.30;;
23680;SDS011;62915;50.832;4.462;2023-02-16T10:25:35;50.33;;;32.10;;
23680;SDS011;62915;50.832;4.462;2023-02-16T10:28:15;53.83;;;31.42;;
23680;SDS011;62915;50.832;4.462;2023-02-16T10:30:41;49.53;;;30.65;;
23680;SDS011;62915;50.832;4.462;2023-02-16T10:36:21;46.95;;;31.98;;
23680;SDS011;62915;50.832;4.462;2023-02-16T10:38:56;53.35;;;32.03;;
23680;SDS011;62915;50.832;4.462;2023-02-16T10:41:46;56.85;;;32.25;;
23680;SDS011;62915;50.832;4.462;2023-02-16T10:44:33;47.05;;;31.38;;
23680;SDS011;62915;50.832;4.462;2023-02-16T10:47:04;53.03;;;31.40;;
23680;SDS011;62915;50.832;4.462;2023-02-16T10:49:48;49.88;;;32.08;;
23680;SDS011;62915;50.832;4.462;2023-02-16T10:52:15;49.60;;;31.65;;
23680;SDS011;62915;50.832;4.462;2023-02-16T10:54:41;49.55;;;31.40;;
23680;SDS011;62915;50.832;4.462;2023-02-16T10:57:12;47.95;;;30.85;;
23680;SDS011;62915;50.832;4.462;2023-02-16T10:59:51;53.63;;;31.02;;
23680;SDS011;62915;50.832;4.462;2023-02-16T11:02:19;48.45;;;30.58;;
23680;SDS011;62915;50.832;4.462;2023-02-16T11:04:55;48.67;;;30.13;;
23680;SDS011;62915;50.832;4.462;2023-02-16T11:07:23;48.13;;;32.20;;
23680;SDS011;62915;50.832;4.462;2023-02-16T11:09:51;44.08;;;28.50;;
23680;SDS011;62915;50.832;4.462;2023-02-16T11:12:37;42.22;;;29.10;;
23680;SDS011;62915;50.832;4.462;2023-02-16T11:17:51;35.42;;;25.77;;
23680;SDS011;62915;50.832;4.462;2023-02-16T11:21:03;38.08;;;26.58;;
23680;SDS011;62915;50.832;4.462;2023-02-16T11:25:41;39.08;;;26.63;;
23680;SDS011;62915;50.832;4.462;2023-02-16T11:28:24;34.20;;;23.88;;
23680;SDS011;62915;50.832;4.462;2023-02-16T11:33:24;42.13;;;24.95;;
23680;SDS011;62915;50.832;4.462;2023-02-16T11:35:53;36.22;;;25.58;;
23680;SDS011;62915;50.832;4.462;2023-02-16T11:38:27;36.22;;;23.42;;
23680;SDS011;62915;50.832;4.462;2023-02-16T11:40:56;35.25;;;24.50;;
23680;SDS011;62915;50.832;4.462;2023-02-16T11:43:25;35.80;;;25.30;;
23680;SDS011;62915;50.832;4.462;2023-02-16T11:45:56;36.65;;;25.20;;
23680;SDS011;62915;50.832;4.462;2023-02-16T11:48:25;33.17;;;22.80;;
23680;SDS011;62915;50.832;4.462;2023-02-16T11:50:57;38.13;;;23.60;;
23680;SDS011;62915;50.832;4.462;2023-02-16T11:53:30;35.33;;;23.08;;
23680;SDS011;62915;50.832;4.462;2023-02-16T11:59:03;31.98;;;21.10;;
23680;SDS011;62915;50.832;4.462;2023-02-16T12:01:59;31.67;;;22.13;;
23680;SDS011;62915;50.832;4.462;2023-02-16T12:07:31;36.20;;;22.58;;
23680;SDS011;62915;50.832;4.462;2023-02-16T12:15:45;34.60;;;22.80;;
23680;SDS011;62915;50.832;4.462;2023-02-16T12:37:13;36.75;;;21.10;;
23680;SDS011;62915;50.832;4.462;2023-02-16T12:42:42;32.85;;;21.05;;
23680;SDS011;62915;50.832;4.462;2023-02-16T12:45:22;28.58;;;19.42;;
23680;SDS011;62915;50.832;4.462;2023-02-16T12:47:58;28.17;;;19.90;;
23680;SDS011;62915;50.832;4.462;2023-02-16T12:50:30;31.95;;;20.52;;
23680;SDS011;62915;50.832;4.462;2023-02-16T13:06:13;32.03;;;21.77;;
23680;SDS011;62915;50.832;4.462;2023-02-16T13:14:55;33.38;;;20.42;;
23680;SDS011;62915;50.832;4.462;2023-02-16T13:20:18;30.83;;;22.23;;
23680;SDS011;62915;50.832;4.462;2023-02-16T13:25:25;34.50;;;22.50;;
23680;SDS011;62915;50.832;4.462;2023-02-16T13:28:04;33.78;;;22.63;;
23680;SDS011;62915;50.832;4.462;2023-02-16T13:44:24;30.13;;;20.80;;
23680;SDS011;62915;50.832;4.462;2023-02-16T13:46:58;27.27;;;19.83;;
23680;SDS011;62915;50.832;4.462;2023-02-16T13:49:28;32.83;;;19.48;;
23680;SDS011;62915;50.832;4.462;2023-02-16T13:52:02;32.95;;;19.63;;
23680;SDS011;62915;50.832;4.462;2023-02-16T13:54:30;29.98;;;19.20;;
23680;SDS011;62915;50.832;4.462;2023-02-16T13:57:01;32.00;;;19.58;;
23680;SDS011;62915;50.832;4.462;2023-02-16T14:01:53;29.38;;;18.13;;
23680;SDS011;62915;50.832;4.462;2023-02-16T14:07:32;32.42;;;18.98;;
23680;SDS011;62915;50.832;4.462;2023-02-16T14:09:48;29.65;;;20.05;;
23680;SDS011;62915;50.832;4.462;2023-02-16T14:12:15;35.90;;;20.55;;
23680;SDS011;62915;50.832;4.462;2023-02-16T14:15:01;34.70;;;20.88;;
23680;SDS011;62915;50.832;4.462;2023-02-16T14:17:33;29.83;;;20.33;;
23680;SDS011;62915;50.832;4.462;2023-02-16T14:22:49;32.45;;;21.05;;
23680;SDS011;62915;50.832;4.462;2023-02-16T14:27:50;29.73;;;19.98;;
23680;SDS011;62915;50.832;4.462;2023-02-16T14:30:30;31.58;;;20.42;;
23680;SDS011;62915;50.832;4.462;2023-02-16T14:35:41;35.67;;;18.77;;
23680;SDS011;62915;50.832;4.462;2023-02-16T14:38:32;31.52;;;18.98;;
23680;SDS011;62915;50.832;4.462;2023-02-16T14:40:59;28.40;;;18.42;;
23680;SDS011;62915;50.832;4.462;2023-02-16T14:43:32;29.52;;;19.27;;
23680;SDS011;62915;50.832;4.462;2023-02-16T15:00:11;26.42;;;17.45;;
23680;SDS011;62915;50.832;4.462;2023-02-16T15:05:21;31.10;;;20.00;;
23680;SDS011;62915;50.832;4.462;2023-02-16T15:07:51;36.13;;;19.67;;
23680;SDS011;62915;50.832;4.462;2023-02-16T15:10:26;29.67;;;17.25;;
23680;SDS011;62915;50.832;4.462;2023-02-16T15:12:54;30.15;;;17.98;;
23680;SDS011;62915;50.832;4.462;2023-02-16T15:15:25;29.50;;;19.35;;
23680;SDS011;62915;50.832;4.462;2023-02-16T15:17:58;26.67;;;18.65;;
23680;SDS011;62915;50.832;4.462;2023-02-16T15:22:59;27.10;;;18.33;;
23680;SDS011;62915;50.832;4.462;2023-02-16T15:25:31;30.20;;;18.58;;
23680;SDS011;62915;50.832;4.462;2023-02-16T15:28:02;32.13;;;18.83;;
23680;SDS011;62915;50.832;4.462;2023-02-16T15:30:38;31.95;;;18.92;;
23680;SDS011;62915;50.832;4.462;2023-02-16T15:33:27;27.83;;;18.88;;
23680;SDS011;62915;50.832;4.462;2023-02-16T15:35:58;25.92;;;18.92;;
23680;SDS011;62915;50.832;4.462;2023-02-16T15:38:26;30.02;;;18.30;;
23680;SDS011;62915;50.832;4.462;2023-02-16T15:41:07;31.00;;;18.83;;
23680;SDS011;62915;50.832;4.462;2023-02-16T15:43:47;25.83;;;18.60;;
23680;SDS011;62915;50.832;4.462;2023-02-16T15:49:11;26.80;;;17.45;;
23680;SDS011;62915;50.832;4.462;2023-02-16T15:51:50;23.73;;;16.67;;
23680;SDS011;62915;50.832;4.462;2023-02-16T15:56:54;27.83;;;18.17;;
23680;SDS011;62915;50.832;4.462;2023-02-16T16:04:31;29.88;;;18.55;;
23680;SDS011;62915;50.832;4.462;2023-02-16T16:07:03;27.50;;;17.73;;
23680;SDS011;62915;50.832;4.462;2023-02-16T16:09:31;28.65;;;17.95;;
23680;SDS011;62915;50.832;4.462;2023-02-16T16:12:00;26.60;;;17.95;;
23680;SDS011;62915;50.832;4.462;2023-02-16T16:14:28;32.42;;;19.63;;
23680;SDS011;62915;50.832;4.462;2023-02-16T16:16:57;26.00;;;17.08;;
23680;SDS011;62915;50.832;4.462;2023-02-16T16:19:33;28.88;;;18.95;;
23680;SDS011;62915;50.832;4.462;2023-02-16T16:22:01;27.48;;;17.08;;
23680;SDS011;62915;50.832;4.462;2023-02-16T16:24:33;27.48;;;18.40;;
23680;SDS011;62915;50.832;4.462;2023-02-16T16:27:10;27.35;;;17.73;;
23680;SDS011;62915;50.832;4.462;2023-02-16T16:32:18;28.70;;;17.85;;
23680;SDS011;62915;50.832;4.462;2023-02-16T16:34:49;25.88;;;18.30;;
23680;SDS011;62915;50.832;4.462;2023-02-16T16:39:59;29.08;;;19.27;;
23680;SDS011;62915;50.832;4.462;2023-02-16T16:48:30;33.00;;;19.98;;
23680;SDS011;62915;50.832;4.462;2023-02-16T16:56:13;34.92;;;22.95;;
23680;SDS011;62915;50.832;4.462;2023-02-16T16:58:40;35.03;;;21.75;;
23680;SDS011;62915;50.832;4.462;2023-02-16T17:01:05;33.40;;;22.70;;
23680;SDS011;62915;50.832;4.462;2023-02-16T17:03:32;39.05;;;25.67;;
23680;SDS011;62915;50.832;4.462;2023-02-16T17:05:58;36.35;;;23.02;;
23680;SDS011;62915;50.832;4.462;2023-02-16T17:08:24;41.65;;;24.85;;
23680;SDS011;62915;50.832;4.462;2023-02-16T17:10:49;42.13;;;26.92;;
23680;SDS011;62915;50.832;4.462;2023-02-16T17:13:16;41.85;;;28.42;;
23680;SDS011;62915;50.832;4.462;2023-02-16T17:15:47;39.33;;;25.65;;
23680;SDS011;62915;50.832;4.462;2023-02-16T17:18:23;44.63;;;26.55;;
23680;SDS011;62915;50.832;4.462;2023-02-16T17:20:50;39.40;;;26.20;;
23680;SDS011;62915;50.832;4.462;2023-02-16T17:23:16;39.83;;;26.00;;
23680;SDS011;62915;50.832;4.462;2023-02-16T17:25:43;37.58;;;27.88;;
23680;SDS011;62915;50.832;4.462;2023-02-16T17:28:10;37.67;;;27.77;;
23680;SDS011;62915;50.832;4.462;2023-02-16T17:30:37;35.60;;;24.80;;
23680;SDS011;62915;50.832;4.462;2023-02-16T17:33:03;39.47;;;25.70;;
23680;SDS011;62915;50.832;4.462;2023-02-16T17:35:31;34.13;;;24.10;;
23680;SDS011;62915;50.832;4.462;2023-02-16T17:37:57;40.35;;;26.83;;
23680;SDS011;62915;50.832;4.462;2023-02-16T17:40:23;38.40;;;23.77;;
23680;SDS011;62915;50.832;4.462;2023-02-16T17:42:50;35.30;;;23.35;;
23680;SDS011;62915;50.832;4.462;2023-02-16T17:45:19;38.67;;;24.52;;
23680;SDS011;62915;50.832;4.462;2023-02-16T17:47:47;36.65;;;24.48;;
23680;SDS011;62915;50.832;4.462;2023-02-16T17:50:14;32.20;;;21.63;;
23680;SDS011;62915;50.832;4.462;2023-02-16T17:52:41;32.25;;;22.23;;
23680;SDS011;62915;50.832;4.462;2023-02-16T17:55:08;30.45;;;20.98;;
23680;SDS011;62915;50.832;4.462;2023-02-16T17:57:35;34.13;;;22.25;;
23680;SDS011;62915;50.832;4.462;2023-02-16T18:00:03;32.17;;;21.10;;
23680;SDS011;62915;50.832;4.462;2023-02-16T18:02:31;30.27;;;20.63;;
23680;SDS011;62915;50.832;4.462;2023-02-16T18:04:56;33.88;;;22.13;;
23680;SDS011;62915;50.832;4.462;2023-02-16T18:07:22;32.83;;;20.63;;
23680;SDS011;62915;50.832;4.462;2023-02-16T18:09:48;30.05;;;21.35;;
23680;SDS011;62915;50.832;4.462;2023-02-16T18:12:14;35.33;;;22.02;;